Time;durP1;ratioP1;P1;durP2;ratioP2;P2;SDS_P1;SDS_P2;PMS_P1;PMS_P2;Temp;Humidity;BMP_temperature;BMP_pressure;BME280_temperature;BME280_humidity;BME280_pressure;Samples;Min_cycle;Max_cycle;Signal;HPM_P1;HPM_P2
2022/05/02 00:02:14;;;;;;;25.50;9.85;;;;;;;10.63;35.58;99433.22;5029905;28;20124;-76
2022/05/02 00:04:40;;;;;;;29.73;12.13;;;;;;;10.64;35.47;99434.88;5028873;28;20065;-76
2022/05/02 00:07:06;;;;;;;24.30;9.77;;;;;;;10.64;35.35;99441.16;5025099;28;20083;-76
2022/05/02 00:09:33;;;;;;;26.70;10.63;;;;;;;10.64;35.55;99437.59;5010849;28;20056;-76
2022/05/02 00:11:59;;;;;;;24.65;10.02;;;;;;;10.63;35.70;99436.78;5031193;28;20051;-75
2022/05/02 00:14:25;;;;;;;21.98;10.75;;;;;;;10.62;35.71;99432.44;5030553;28;20057;-73
2022/05/02 00:16:51;;;;;;;28.20;10.55;;;;;;;10.62;35.78;99432.44;5012277;28;20048;-74
2022/05/02 00:19:18;;;;;;;31.08;10.25;;;;;;;10.60;35.82;99426.41;5030695;28;20053;-75
2022/05/02 00:21:44;;;;;;;23.13;10.38;;;;;;;10.57;35.95;99416.03;5031456;28;20502;-74
2022/05/02 00:24:10;;;;;;;33.30;12.20;;;;;;;10.59;35.98;99432.97;5013150;28;20103;-74
2022/05/02 00:26:37;;;;;;;31.63;10.90;;;;;;;10.58;35.91;99433.28;5026147;28;20048;-74
2022/05/02 00:29:03;;;;;;;24.67;11.20;;;;;;;10.59;35.89;99434.91;5012640;28;20100;-74
2022/05/02 00:31:29;;;;;;;25.20;11.05;;;;;;;10.58;36.05;99433.28;4997528;28;20307;-74
2022/05/02 00:33:55;;;;;;;22.17;10.40;;;;;;;10.59;36.07;99432.97;5030794;28;20464;-74
2022/05/02 00:36:21;;;;;;;27.85;11.60;;;;;;;10.58;35.99;99431.34;5027157;28;20060;-75
2022/05/02 00:38:47;;;;;;;23.40;10.98;;;;;;;10.59;35.92;99426.72;5013277;28;20390;-73
2022/05/02 00:41:15;;;;;;;25.52;10.45;;;;;;;10.54;36.07;99421.28;5031209;28;20052;-74
2022/05/02 00:43:42;;;;;;;26.35;10.48;;;;;;;10.48;36.55;99417.75;5013206;28;20421;-74
2022/05/02 00:46:17;;;;;;;28.15;11.30;;;;;;;10.42;36.55;99418.88;5008995;28;20052;-74
2022/05/02 00:48:43;;;;;;;25.65;10.40;;;;;;;10.56;36.48;99421.81;5011503;28;20042;-74
2022/05/02 00:51:09;;;;;;;22.42;10.27;;;;;;;10.55;36.44;99411.97;5007742;28;20051;-74
2022/05/02 00:53:36;;;;;;;27.25;10.65;;;;;;;10.50;36.59;99415.56;5026938;28;20096;-75
2022/05/02 00:56:03;;;;;;;25.83;10.48;;;;;;;10.27;36.94;99412.38;5026010;28;20045;-74
2022/05/02 00:58:30;;;;;;;23.55;9.82;;;;;;;10.33;36.85;99421.38;5030680;28;20506;-74
2022/05/02 01:00:57;;;;;;;26.80;10.60;;;;;;;10.28;36.85;99410.47;5009627;28;20077;-75
2022/05/02 01:03:23;;;;;;;20.80;9.68;;;;;;;10.27;37.12;99409.63;5029548;28;20053;-75
2022/05/02 01:08:35;;;;;;;23.13;10.82;;;;;;;10.25;37.35;99403.66;5031132;28;20073;-74
2022/05/02 01:11:02;;;;;;;34.10;12.48;;;;;;;10.23;37.76;99403.13;5029782;28;20492;-74
2022/05/02 01:13:37;;;;;;;26.60;11.27;;;;;;;10.10;37.88;99406.47;4994816;28;20111;-74
2022/05/02 01:16:12;;;;;;;26.70;11.55;;;;;;;10.04;38.12;99401.03;5012567;28;20061;-75
2022/05/02 01:18:39;;;;;;;29.25;12.15;;;;;;;9.98;38.22;99402.16;5028599;28;20037;-75
2022/05/02 01:21:10;;;;;;;29.55;11.30;;;;;;;9.91;38.52;99397.00;5027413;28;20072;-75
2022/05/02 01:23:36;;;;;;;30.77;10.80;;;;;;;9.89;38.36;99399.19;5038197;28;20049;-75
2022/05/02 01:26:03;;;;;;;23.35;11.48;;;;;;;9.84;38.53;99396.47;5029628;28;20049;-75
2022/05/02 01:28:29;;;;;;;30.38;10.95;;;;;;;9.73;38.70;99401.19;5011637;28;20053;-75
2022/05/02 01:30:55;;;;;;;25.05;10.98;;;;;;;9.72;38.78;99402.28;5029612;28;20425;-75
2022/05/02 01:33:22;;;;;;;20.98;10.57;;;;;;;9.65;38.85;99399.00;5029756;28;20053;-75
2022/05/02 01:35:48;;;;;;;24.67;10.43;;;;;;;9.65;38.82;99404.47;5030077;28;20167;-74
2022/05/02 01:38:15;;;;;;;27.40;11.70;;;;;;;9.65;38.90;99401.72;5028126;28;20131;-74
2022/05/02 01:40:41;;;;;;;24.65;11.10;;;;;;;9.70;38.82;99401.72;5025181;28;20049;-75
2022/05/02 01:43:09;;;;;;;22.20;10.73;;;;;;;9.61;38.91;99398.78;5027599;28;20041;-75
2022/05/02 01:45:35;;;;;;;25.55;10.77;;;;;;;9.55;39.21;99391.66;5030112;28;20505;-74
2022/05/02 01:48:01;;;;;;;24.25;10.85;;;;;;;9.59;38.89;99397.41;5010984;28;20405;-74
2022/05/02 01:50:27;;;;;;;28.35;12.68;;;;;;;9.57;39.13;99396.88;5011473;28;20092;-74
2022/05/02 01:52:54;;;;;;;24.90;10.75;;;;;;;9.65;39.01;99405.28;5029839;28;20053;-74
2022/05/02 01:55:21;;;;;;;29.50;10.88;;;;;;;9.76;38.87;99403.34;5022953;28;20149;-75
2022/05/02 01:57:47;;;;;;;21.95;10.90;;;;;;;10.05;38.65;99408.13;5024418;28;20107;-74
2022/05/02 02:00:14;;;;;;;23.27;10.43;;;;;;;10.01;38.68;99401.59;5029281;28;20464;-73
2022/05/02 02:02:43;;;;;;;27.00;11.00;;;;;;;9.85;39.07;99413.69;5028546;28;20060;-73
2022/05/02 02:07:54;;;;;;;23.52;10.38;;;;;;;9.56;39.61;99412.41;5028471;28;20048;-73
2022/05/02 02:10:21;;;;;;;23.48;9.75;;;;;;;9.59;39.60;99413.78;5011177;28;20054;-73
2022/05/02 02:12:47;;;;;;;22.65;9.60;;;;;;;9.69;39.54;99412.91;5012035;28;20398;-74
2022/05/02 02:15:14;;;;;;;22.20;9.65;;;;;;;9.83;39.13;99413.13;5029094;28;20056;-74
2022/05/02 02:17:41;;;;;;;22.77;9.60;;;;;;;9.90;38.75;99409.00;5028468;28;20061;-74
2022/05/02 02:20:08;;;;;;;22.58;10.65;;;;;;;9.96;38.81;99400.81;4996126;28;20053;-74
2022/05/02 02:22:35;;;;;;;;;;;;;;;9.98;38.89;99410.34;5030892;28;20057;-68
2022/05/02 02:25:01;;;;;;;28.15;10.50;;;;;;;9.97;39.01;99411.44;5031145;28;19937;-68
2022/05/02 02:27:28;;;;;;;24.63;11.00;;;;;;;9.95;38.93;99401.91;5027987;28;20247;-69
2022/05/02 02:29:54;;;;;;;28.52;11.82;;;;;;;10.00;39.06;99405.44;5014283;28;20501;-69
2022/05/02 02:32:21;;;;;;;28.17;10.18;;;;;;;10.06;39.32;99411.66;5030013;28;20049;-69
2022/05/02 02:34:47;;;;;;;24.77;10.68;;;;;;;10.02;39.65;99405.97;4996718;28;20049;-71
2022/05/02 02:37:13;;;;;;;27.85;11.20;;;;;;;10.00;39.74;99416.38;5030289;28;20045;-70
2022/05/02 02:39:40;;;;;;;34.38;11.02;;;;;;;10.07;40.07;99413.31;5024444;28;20053;-70
2022/05/02 02:42:07;;;;;;;29.65;11.23;;;;;;;10.12;39.99;99415.19;5014719;28;20080;-70
2022/05/02 02:44:34;;;;;;;27.42;10.35;;;;;;;10.15;40.02;99409.19;5012781;28;20045;-70
2022/05/02 02:47:00;;;;;;;28.17;11.57;;;;;;;10.12;40.01;99405.09;5029657;28;20053;-70
2022/05/02 02:49:27;;;;;;;37.40;10.30;;;;;;;10.10;40.44;99418.22;5032010;28;20171;-71
2022/05/02 02:51:53;;;;;;;26.60;10.63;;;;;;;10.13;40.22;99411.34;5032019;28;20057;-70
2022/05/02 02:54:20;;;;;;;30.27;11.90;;;;;;;10.16;40.31;99413.56;5013127;28;20076;-72
2022/05/02 02:56:46;;;;;;;28.40;10.70;;;;;;;10.15;40.43;99420.91;5012909;28;20050;-74
2022/05/02 02:59:12;;;;;;;31.15;12.57;;;;;;;10.19;40.13;99418.44;5013795;28;20053;-73
2022/05/02 03:01:40;;;;;;;28.35;11.68;;;;;;;10.25;39.73;99425.50;5032909;28;20068;-71
2022/05/02 03:06:52;;;;;;;34.70;12.35;;;;;;;10.31;39.57;99418.09;5014541;28;20124;-72
2022/05/02 03:09:18;;;;;;;31.60;11.77;;;;;;;10.31;39.49;99424.41;5031677;28;20525;-70
2022/05/02 03:11:45;;;;;;;32.92;11.48;;;;;;;10.22;40.03;99426.06;5031555;28;20048;-73
2022/05/02 03:14:11;;;;;;;39.42;12.27;;;;;;;10.20;40.07;99425.53;5012728;28;20056;-72
2022/05/02 03:16:37;;;;;;;35.10;12.25;;;;;;;10.35;39.81;99424.63;5011386;28;20055;-71
2022/05/02 03:19:04;;;;;;;31.73;12.63;;;;;;;10.28;39.96;99421.41;5027248;28;20045;-73
2022/05/02 03:21:30;;;;;;;40.55;12.75;;;;;;;10.25;40.25;99428.25;5031101;28;20049;-74
2022/05/02 03:23:57;;;;;;;30.40;11.13;;;;;;;10.23;40.29;99422.25;4997073;28;20103;-71
2022/05/02 03:26:23;;;;;;;32.22;12.10;;;;;;;10.28;40.01;99424.13;5030723;28;20051;-71
2022/05/02 03:28:49;;;;;;;29.42;13.63;;;;;;;10.33;40.01;99424.09;5014002;28;20048;-71
2022/05/02 03:31:15;;;;;;;31.40;12.38;;;;;;;10.40;39.86;99431.97;5030478;28;20052;-73
2022/05/02 03:33:42;;;;;;;39.83;11.95;;;;;;;10.31;39.78;99427.13;5013754;28;20053;-72
2022/05/02 03:36:08;;;;;;;25.58;12.07;;;;;;;10.36;40.18;99434.47;5014858;28;20053;-74
2022/05/02 03:38:35;;;;;;;35.60;13.30;;;;;;;10.39;40.03;99427.63;5011854;28;20541;-73
2022/05/02 03:41:01;;;;;;;25.02;11.70;;;;;;;10.45;40.17;99431.97;5031760;28;20045;-72
2022/05/02 03:43:27;;;;;;;30.95;11.80;;;;;;;10.48;40.13;99442.38;5032435;28;20053;-71
2022/05/02 03:45:53;;;;;;;35.10;12.68;;;;;;;10.52;40.06;99437.13;4996054;28;20064;-72
2022/05/02 03:48:20;;;;;;;41.78;12.65;;;;;;;10.52;40.07;99435.22;5029537;28;20104;-72
2022/05/02 03:50:46;;;;;;;33.20;13.18;;;;;;;10.58;40.01;99439.53;5014271;28;20457;-70
2022/05/02 03:53:17;;;;;;;31.35;12.27;;;;;;;10.53;40.08;99434.13;5032080;28;20077;-70
2022/05/02 03:55:45;;;;;;;27.10;12.13;;;;;;;10.58;40.11;99445.00;5032130;28;20092;-69
2022/05/02 03:58:11;;;;;;;25.48;10.68;;;;;;;10.60;39.95;99444.75;5013706;28;20060;-71
2022/05/02 04:00:38;;;;;;;25.90;11.87;;;;;;;10.57;40.06;99440.66;5029841;28;20064;-71
2022/05/02 04:03:04;;;;;;;27.45;12.18;;;;;;;10.62;40.24;99435.16;5032226;28;20062;-70
2022/05/02 04:05:30;;;;;;;24.65;10.80;;;;;;;10.62;40.29;99435.16;5030105;28;20769;-70
2022/05/02 04:07:57;;;;;;;34.60;11.88;;;;;;;10.62;40.55;99440.63;5018997;28;20041;-71
2022/05/02 04:10:23;;;;;;;30.35;10.82;;;;;;;10.67;40.40;99433.50;5037187;28;20049;-70
2022/05/02 04:12:50;;;;;;;29.80;12.13;;;;;;;10.71;40.30;99435.38;5031998;28;20424;-71
2022/05/02 04:15:17;;;;;;;37.53;11.55;;;;;;;10.74;40.30;99442.16;5032106;28;20584;-71
2022/05/02 04:17:43;;;;;;;26.33;12.13;;;;;;;10.75;40.43;99438.34;5028196;28;20091;-71
2022/05/02 04:20:10;;;;;;;38.38;10.80;;;;;;;10.82;40.54;99436.09;5031744;28;20054;-72
2022/05/02 04:22:37;;;;;;;34.28;12.07;;;;;;;10.86;40.51;99437.16;5031886;28;20133;-70
2022/05/02 04:25:05;;;;;;;31.95;12.07;;;;;;;10.91;40.65;99442.59;5030808;28;20041;-71
2022/05/02 04:27:31;;;;;;;36.38;12.48;;;;;;;10.98;40.57;99434.06;5030737;28;20136;-71
2022/05/02 04:29:58;;;;;;;35.65;12.23;;;;;;;11.02;40.49;99434.31;5014007;28;20053;-69
2022/05/02 04:32:24;;;;;;;27.95;11.10;;;;;;;11.05;40.43;99436.47;5031361;28;20049;-70
2022/05/02 04:34:54;;;;;;;29.25;10.85;;;;;;;11.14;40.41;99432.00;5012281;28;20045;-70
2022/05/02 04:37:20;;;;;;;36.13;10.90;;;;;;;11.16;40.24;99432.53;5028290;28;20045;-71
2022/05/02 04:39:46;;;;;;;28.38;10.80;;;;;;;11.23;40.12;99436.84;5031293;28;20092;-71
2022/05/02 04:42:13;;;;;;;24.40;9.57;;;;;;;11.25;40.09;99435.47;5031429;28;20069;-70
2022/05/02 04:44:40;;;;;;;21.35;9.60;;;;;;;11.32;39.78;99435.97;5011637;28;20072;-72
2022/05/02 04:47:06;;;;;;;20.63;8.77;;;;;;;11.34;39.86;99428.28;5029026;28;20077;-71
2022/05/02 04:49:32;;;;;;;22.77;8.63;;;;;;;11.40;40.33;99433.69;5002413;28;20057;-70
2022/05/02 04:51:59;;;;;;;24.60;7.50;;;;;;;11.41;39.95;99427.09;5031184;28;20415;-70
2022/05/02 04:54:25;;;;;;;19.27;7.60;;;;;;;11.32;39.72;99425.00;5011384;28;20517;-70
2022/05/02 04:56:51;;;;;;;15.90;6.70;;;;;;;11.39;39.91;99432.06;5030569;28;20580;-71
2022/05/02 04:59:17;;;;;;;16.65;6.25;;;;;;;11.39;39.42;99437.53;5031129;28;20049;-71
2022/05/02 05:01:46;;;;;;;21.90;8.07;;;;;;;11.46;39.07;99438.81;5012294;28;20410;-70
2022/05/02 05:04:13;;;;;;;18.52;7.10;;;;;;;11.46;38.91;99438.00;5026880;28;20320;-69
2022/05/02 05:06:39;;;;;;;21.00;7.10;;;;;;;11.48;38.72;99433.88;5031032;28;20135;-70
2022/05/02 05:09:05;;;;;;;16.35;6.40;;;;;;;11.55;38.82;99432.69;5031163;28;20045;-70
2022/05/02 05:11:41;;;;;;;15.60;6.97;;;;;;;11.58;38.76;99430.19;5030858;28;20046;-70
2022/05/02 05:17:20;;;;;;;16.73;6.50;;;;;;;11.63;38.70;99440.28;5030896;28;20101;-70
2022/05/02 05:20:04;;;;;;;18.23;6.95;;;;;;;11.68;38.23;99439.41;5030542;28;20514;-71
2022/05/02 05:22:44;;;;;;;25.02;6.28;;;;;;;11.73;37.92;99442.91;5028611;28;20037;-72
2022/05/02 05:25:38;;;;;;;21.88;5.97;;;;;;;11.74;37.77;99446.47;4993196;28;20062;-72
2022/05/02 05:28:26;;;;;;;18.50;6.22;;;;;;;11.80;37.68;99450.78;4993523;28;20422;-72
2022/05/02 05:31:10;;;;;;;17.08;6.13;;;;;;;11.85;37.39;99436.19;5017128;28;20136;-71
2022/05/02 05:33:49;;;;;;;16.23;5.75;;;;;;;11.86;37.26;99443.31;5011692;28;20050;-71
2022/05/02 05:36:34;;;;;;;19.80;5.82;;;;;;;11.92;37.19;99444.91;5030680;28;20060;-70
2022/05/02 05:39:07;;;;;;;18.75;5.22;;;;;;;11.99;36.98;99450.03;5030712;28;20053;-70
2022/05/02 05:41:54;;;;;;;14.07;5.30;;;;;;;12.05;36.79;99449.69;5028521;28;20045;-71
2022/05/02 05:44:29;;;;;;;25.17;6.05;;;;;;;12.07;36.73;99441.16;5007760;28;20046;-72
2022/05/02 05:47:19;;;;;;;15.43;5.03;;;;;;;12.15;36.82;99448.75;5022433;28;20140;-70
2022/05/02 05:50:03;;;;;;;13.60;4.13;;;;;;;12.15;36.35;99442.44;5029167;28;20045;-71
2022/05/02 05:52:40;;;;;;;9.32;3.72;;;;;;;12.13;35.96;99448.22;5025953;28;20096;-71
2022/05/02 05:55:07;;;;;;;;;;;;;;;12.23;35.88;99440.97;5011154;28;20076;-71
2022/05/02 05:57:43;;;;;;;11.85;3.78;;;;;;;12.30;35.73;99433.22;5026683;28;19995;-71
2022/05/02 06:00:12;;;;;;;10.55;3.80;;;;;;;12.44;35.86;99436.03;5015039;28;20095;-71
2022/05/02 06:03:00;;;;;;;11.32;3.67;;;;;;;12.42;35.57;99428.09;5090530;22;20135;-71
2022/05/02 06:09:55;;;;;;;18.52;5.68;;;;;;;12.55;35.11;99431.19;5134752;22;20114;-71
2022/05/02 06:12:45;;;;;;;17.30;4.72;;;;;;;12.54;35.10;99437.78;5077554;28;20048;-72
2022/05/02 06:18:29;;;;;;;16.73;4.83;;;;;;;12.63;34.90;99439.56;5002961;28;20054;-72
2022/05/02 06:21:06;;;;;;;14.23;4.40;;;;;;;12.74;35.09;99433.94;4996741;28;20305;-72
2022/05/02 06:23:35;;;;;;;;;;;;;;;12.73;34.92;99433.13;4977070;28;20072;-72
2022/05/02 06:26:02;;;;;;;9.20;3.15;;;;;;;12.71;34.28;99440.03;5000333;28;20409;-71
2022/05/02 06:28:30;;;;;;;;;;;;;;;12.75;34.26;99439.13;4993959;28;20073;-71
2022/05/02 06:31:03;;;;;;;10.77;3.10;;;;;;;12.76;33.68;99437.19;5007477;28;20398;-72
2022/05/02 06:33:30;;;;;;;10.00;3.05;;;;;;;12.82;33.64;99433.28;5006085;28;20050;-73
2022/05/02 06:36:12;;;;;;;10.30;3.25;;;;;;;12.86;33.67;99437.03;5010800;28;20473;-72
2022/05/02 06:38:50;;;;;;;10.25;3.22;;;;;;;12.90;33.37;99431.78;4991008;28;20145;-72
2022/05/02 06:41:28;;;;;;;11.07;3.35;;;;;;;12.89;33.49;99427.41;4995064;28;20042;-72
2022/05/02 06:44:03;;;;;;;16.75;3.40;;;;;;;12.91;33.85;99427.91;5013556;28;20060;-72
2022/05/02 06:46:37;;;;;;;11.05;2.97;;;;;;;12.91;33.59;99425.16;4992666;28;20057;-72
2022/05/02 06:49:07;;;;;;;11.43;3.10;;;;;;;12.93;33.63;99414.72;4995912;28;20081;-72
2022/05/02 06:51:38;;;;;;;12.50;3.30;;;;;;;12.86;33.08;99417.00;4995647;28;20046;-73
2022/05/02 06:54:39;;;;;;;8.70;3.22;;;;;;;13.04;32.92;99420.84;4995250;28;20078;-72
2022/05/02 06:57:15;;;;;;;7.60;2.60;;;;;;;13.16;32.34;99415.69;4981878;28;20149;-72
2022/05/02 06:59:51;;;;;;;9.65;3.05;;;;;;;13.15;31.50;99416.81;4993219;28;20054;-71
2022/05/02 07:02:49;;;;;;;9.63;2.83;;;;;;;13.16;31.20;99410.19;5012633;28;20435;-73
2022/05/02 07:05:25;;;;;;;10.50;3.00;;;;;;;13.23;30.70;99411.72;4993966;28;20107;-73
2022/05/02 07:08:04;;;;;;;10.45;3.60;;;;;;;13.32;30.51;99409.91;4995079;28;20292;-72
2022/05/02 07:10:50;;;;;;;11.00;3.08;;;;;;;13.08;30.39;99388.13;4974966;28;20046;-72
2022/05/02 07:13:57;;;;;;;9.45;3.33;;;;;;;13.21;30.38;99401.06;4943052;28;20514;-70
2022/05/02 07:16:37;;;;;;;14.95;2.90;;;;;;;13.38;30.25;99399.66;4971639;28;20537;-73
2022/05/02 07:19:58;;;;;;;9.20;3.33;;;;;;;13.43;29.90;99405.03;4982387;28;20050;-72
2022/05/02 07:22:56;;;;;;;12.57;2.70;;;;;;;13.43;29.48;99403.16;4971353;28;20054;-73
2022/05/02 07:25:46;;;;;;;10.32;2.90;;;;;;;13.37;28.29;99407.06;4917908;29;20209;-70
2022/05/02 07:28:30;;;;;;;7.35;2.78;;;;;;;13.24;28.05;99414.19;4978433;28;20153;-71
2022/05/02 07:31:20;;;;;;;7.85;2.50;;;;;;;13.14;28.46;99389.66;4989719;28;20532;-73
2022/05/02 07:33:51;;;;;;;10.43;3.10;;;;;;;13.20;29.05;99399.44;4990182;28;20057;-72
2022/05/02 07:36:20;;;;;;;12.05;2.88;;;;;;;13.32;29.29;99405.22;4990832;28;20097;-72
2022/05/02 07:38:50;;;;;;;12.55;2.90;;;;;;;13.38;29.47;99402.41;4987696;28;20459;-72
2022/05/02 07:41:27;;;;;;;10.52;2.85;;;;;;;13.49;29.56;99405.81;4968759;28;20137;-72
2022/05/02 07:43:59;;;;;;;10.10;2.72;;;;;;;13.58;29.80;99396.53;4992563;28;20121;-72
2022/05/02 07:46:28;;;;;;;9.63;2.45;;;;;;;13.72;29.57;99404.78;5011031;28;20400;-74
2022/05/02 07:49:02;;;;;;;12.23;3.10;;;;;;;13.81;29.00;99398.56;4996941;28;20058;-73
2022/05/02 07:51:29;;;;;;;11.43;2.95;;;;;;;13.89;28.84;99397.84;5009237;28;20121;-74
2022/05/02 07:54:00;;;;;;;11.80;2.70;;;;;;;14.06;28.87;99408.22;4992980;28;20046;-74
2022/05/02 07:56:32;;;;;;;15.90;3.13;;;;;;;14.23;28.61;99407.59;4983154;28;20104;-72
2022/05/02 07:59:00;;;;;;;10.98;2.78;;;;;;;14.24;28.71;99408.38;5007412;28;20051;-73
2022/05/02 08:01:26;;;;;;;11.27;3.33;;;;;;;14.21;28.12;99398.84;5007059;28;20054;-74
2022/05/02 08:03:56;;;;;;;10.90;2.90;;;;;;;14.27;27.72;99402.25;4999039;28;20153;-73
2022/05/02 08:07:00;;;;;;;10.07;3.10;;;;;;;14.18;27.34;99381.00;5011508;28;20050;-71
2022/05/02 08:09:52;;;;;;;11.45;2.90;;;;;;;14.32;27.61;99391.16;4959651;28;20050;-72
2022/05/02 08:12:27;;;;;;;7.13;2.50;;;;;;;14.37;27.76;99385.53;4978447;28;20065;-72
2022/05/02 08:15:01;;;;;;;11.38;2.70;;;;;;;14.47;27.99;99384.47;5011102;28;20049;-71
2022/05/02 08:17:51;;;;;;;6.55;2.30;;;;;;;14.55;27.81;99389.25;4993391;28;20042;-73
2022/05/02 08:20:26;;;;;;;7.88;2.50;;;;;;;14.63;27.10;99386.88;5007395;28;20054;-73
2022/05/02 08:28:55;;;;;;;12.63;2.97;;;;;;;14.73;25.13;99384.72;5006209;28;20042;-73
2022/05/02 08:31:41;;;;;;;11.55;3.65;;;;;;;14.73;24.89;99384.72;4994242;28;20049;-72
2022/05/02 08:34:15;;;;;;;10.63;3.07;;;;;;;14.53;24.53;99382.44;4992044;28;20047;-73
2022/05/02 08:36:57;;;;;;;9.75;2.72;;;;;;;14.54;25.16;99353.78;5008331;28;20545;-73
2022/05/02 08:39:34;;;;;;;11.20;3.30;;;;;;;14.73;25.40;99370.16;5004733;28;20506;-72
2022/05/02 08:42:21;;;;;;;;;;;;;;;14.77;25.32;99367.59;4991197;28;20046;-73
2022/05/02 08:45:14;;;;;;;9.95;3.42;;;;;;;14.61;25.24;99367.94;4997008;28;19952;-72
2022/05/02 08:48:18;;;;;;;7.80;2.83;;;;;;;14.46;25.41;99372.69;5010513;28;20048;-73
2022/05/02 08:51:07;;;;;;;15.32;3.90;;;;;;;14.65;25.73;99365.34;5010900;28;20163;-71
2022/05/02 08:54:13;;;;;;;11.00;3.38;;;;;;;14.91;26.04;99349.06;4997322;28;20065;-72
2022/05/02 08:57:06;;;;;;;9.82;3.28;;;;;;;15.19;25.64;99361.84;5007650;28;20099;-71
2022/05/02 09:00:09;;;;;;;8.85;3.13;;;;;;;15.37;24.77;99363.53;4990505;28;20060;-72
2022/05/02 09:03:36;;;;;;;10.20;2.58;;;;;;;15.25;23.74;99349.53;4998723;28;20096;-73
2022/05/02 09:06:48;;;;;;;8.70;2.70;;;;;;;15.17;24.20;99332.69;4946397;28;20574;-72
2022/05/02 09:09:35;;;;;;;8.27;2.90;;;;;;;15.26;25.17;99345.66;4994557;28;20050;-72
2022/05/02 09:12:52;;;;;;;9.48;2.60;;;;;;;15.41;25.74;99339.72;4997998;28;20471;-72
2022/05/02 09:15:46;;;;;;;7.65;2.33;;;;;;;15.66;25.70;99331.88;4979666;28;20550;-73
2022/05/02 09:18:43;;;;;;;7.72;2.85;;;;;;;15.94;25.38;99330.81;5002100;28;20041;-72
2022/05/02 09:21:23;;;;;;;12.57;2.60;;;;;;;16.07;24.67;99331.78;5002853;28;20046;-72
2022/05/02 09:24:24;;;;;;;8.45;2.53;;;;;;;16.00;23.63;99327.56;4998932;28;20046;-73
2022/05/02 09:27:21;;;;;;;9.85;2.78;;;;;;;15.74;23.54;99335.78;5003866;28;20053;-78
2022/05/02 09:30:34;;;;;;;14.82;3.20;;;;;;;15.55;23.49;99325.84;5000427;28;20046;-69
2022/05/02 09:33:17;;;;;;;6.90;2.70;;;;;;;15.27;23.77;99301.28;4993824;28;20050;-70
2022/05/02 09:35:52;;;;;;;11.02;2.92;;;;;;;15.42;24.12;99321.28;4996736;28;20512;-70
2022/05/02 09:38:26;;;;;;;8.68;3.45;;;;;;;15.49;24.34;99318.06;5009243;28;20053;-73
2022/05/02 09:40:59;;;;;;;11.25;3.30;;;;;;;15.67;24.17;99318.88;4998275;28;20056;-70
2022/05/02 09:49:48;;;;;;;9.85;2.17;;;;;;;15.85;21.77;99319.75;5008236;28;20476;-69
2022/05/02 09:52:25;;;;;;;9.05;3.08;;;;;;;15.92;22.38;99303.59;5002557;28;20682;-70
2022/05/02 09:58:08;;;;;;;11.90;2.78;;;;;;;16.35;22.10;99309.41;5002529;28;20038;-69
2022/05/02 10:01:06;;;;;;;8.45;2.60;;;;;;;16.49;22.58;99296.25;5001881;28;20057;-69
2022/05/02 10:04:18;;;;;;;8.23;2.40;;;;;;;16.55;21.60;99300.47;4991247;28;20427;-69
2022/05/02 10:06:49;;;;;;;9.13;2.15;;;;;;;16.49;21.30;99310.03;4969475;28;20050;-68
2022/05/02 10:09:30;;;;;;;7.20;2.47;;;;;;;16.41;21.65;99283.28;4975711;28;20115;-71
2022/05/02 10:12:12;;;;;;;7.90;2.40;;;;;;;16.45;21.40;99287.00;5004934;28;20046;-70
2022/05/02 10:14:50;;;;;;;6.47;2.60;;;;;;;16.51;21.59;99280.16;5003946;28;20108;-69
2022/05/02 10:17:40;;;;;;;9.73;2.90;;;;;;;16.53;21.62;99297.22;4974224;28;20050;-70
2022/05/02 10:20:15;;;;;;;9.68;2.90;;;;;;;16.56;21.40;99270.91;4993426;28;20427;-70
2022/05/02 10:23:03;;;;;;;13.85;3.90;;;;;;;16.81;21.45;99280.25;5008195;28;20054;-70
2022/05/02 10:25:40;;;;;;;8.55;2.85;;;;;;;16.70;21.14;99290.03;5003615;28;20041;-71
2022/05/02 10:28:19;;;;;;;5.90;2.33;;;;;;;16.64;21.14;99277.56;5003688;28;20065;-70
2022/05/02 10:30:54;;;;;;;7.78;2.80;;;;;;;16.40;21.28;99271.44;5003754;28;20046;-69
2022/05/02 10:33:26;;;;;;;12.05;2.85;;;;;;;16.36;21.04;99264.13;5002957;28;20076;-70
2022/05/02 10:35:55;;;;;;;7.05;2.60;;;;;;;16.25;21.18;99249.88;4999120;28;20411;-69
2022/05/02 10:38:28;;;;;;;8.68;2.55;;;;;;;16.24;21.34;99265.63;5006653;28;20045;-69
2022/05/02 10:41:02;;;;;;;8.25;2.60;;;;;;;16.30;21.45;99253.28;4993048;28;20054;-71
2022/05/02 10:43:33;;;;;;;7.30;2.30;;;;;;;16.29;21.35;99242.56;5005681;28;20050;-71
2022/05/02 10:46:01;;;;;;;6.88;2.60;;;;;;;16.25;21.54;99249.88;4990587;28;20049;-69
2022/05/02 10:48:31;;;;;;;;;;;;;;;16.26;21.41;99240.47;4998999;28;20042;-70
2022/05/02 10:51:11;;;;;;;7.78;2.60;;;;;;;16.24;21.44;99240.81;4992556;28;19926;-69
2022/05/02 10:54:03;;;;;;;13.75;3.03;;;;;;;16.46;21.65;99241.72;5011764;28;20503;-69
2022/05/02 10:56:35;;;;;;;11.02;3.00;;;;;;;16.80;21.62;99231.72;5003731;28;20054;-70
2022/05/02 10:59:04;;;;;;;11.85;3.08;;;;;;;17.08;21.13;99228.53;5010953;28;20466;-71
2022/05/02 11:02:04;;;;;;;6.82;2.80;;;;;;;17.24;21.17;99233.50;5005730;28;20076;-73
2022/05/02 11:04:47;;;;;;;9.85;3.55;;;;;;;16.97;20.99;99230.03;4971824;28;20049;-73
2022/05/02 11:07:24;;;;;;;9.45;2.90;;;;;;;16.51;20.62;99225.00;4981699;28;20108;-74
2022/05/02 11:10:02;;;;;;;6.93;2.65;;;;;;;16.27;21.07;99220.00;4981826;28;20064;-73
2022/05/02 11:12:36;;;;;;;14.38;3.00;;;;;;;16.58;21.32;99219.78;5011532;28;20533;-74
2022/05/02 11:15:07;;;;;;;8.80;2.63;;;;;;;16.93;21.28;99202.25;5008446;28;20153;-74
2022/05/02 11:17:55;;;;;;;6.93;2.80;;;;;;;17.39;20.59;99213.59;5006237;28;20057;-74
2022/05/02 11:20:43;;;;;;;9.85;2.72;;;;;;;17.70;20.45;99200.50;4965275;28;20061;-73
2022/05/02 11:23:31;;;;;;;9.30;2.70;;;;;;;17.83;20.64;99185.59;5010072;28;20057;-74
2022/05/02 11:26:13;;;;;;;12.65;3.40;;;;;;;17.83;20.85;99182.03;4998058;28;20112;-73
2022/05/02 11:28:57;;;;;;;8.25;3.03;;;;;;;17.80;21.01;99177.19;4978033;28;20046;-73
2022/05/02 11:31:30;;;;;;;8.93;3.00;;;;;;;17.70;21.42;99170.09;4996984;28;20140;-72
2022/05/02 11:34:02;;;;;;;8.77;2.70;;;;;;;17.77;21.54;99177.84;5010490;28;20053;-73
2022/05/02 11:36:34;;;;;;;12.73;3.67;;;;;;;17.66;21.46;99175.53;4962988;28;20375;-74
2022/05/02 11:39:03;;;;;;;13.30;2.90;;;;;;;17.48;21.00;99163.78;5012172;28;20082;-73
2022/05/02 11:41:31;;;;;;;8.52;3.00;;;;;;;17.23;21.05;99188.47;5009736;28;20050;-75
2022/05/02 11:44:08;;;;;;;6.35;2.50;;;;;;;16.74;20.53;99177.84;4991808;28;20066;-73
2022/05/02 11:46:47;;;;;;;8.85;2.80;;;;;;;16.70;21.06;99172.16;4993293;28;20050;-73
2022/05/02 11:49:18;;;;;;;9.70;3.10;;;;;;;16.76;21.05;99171.97;4988949;28;20060;-72
2022/05/02 11:51:47;;;;;;;7.15;2.80;;;;;;;17.00;20.90;99163.09;5009093;28;20042;-73
2022/05/02 11:54:28;;;;;;;10.60;2.95;;;;;;;17.71;20.36;99163.41;4999377;28;20058;-72
2022/05/02 11:56:59;;;;;;;10.02;2.85;;;;;;;18.47;20.17;99151.47;4991727;28;20061;-73
2022/05/02 11:59:38;;;;;;;9.73;2.88;;;;;;;19.09;20.11;99151.50;5000911;28;20038;-72
2022/05/02 12:02:19;;;;;;;10.50;3.13;;;;;;;19.65;19.26;99156.34;4966521;28;20053;-73
2022/05/02 12:04:48;;;;;;;12.55;2.85;;;;;;;19.82;19.16;99151.66;5005785;28;20080;-73
2022/05/02 12:07:18;;;;;;;7.45;3.00;;;;;;;19.45;18.51;99165.66;5000696;28;20050;-73
2022/05/02 12:09:47;;;;;;;9.23;2.90;;;;;;;18.97;19.03;99157.84;4979082;28;20474;-71
2022/05/02 12:12:13;;;;;;;7.57;2.80;;;;;;;18.90;19.12;99158.41;4994320;28;20069;-73
2022/05/02 12:14:42;;;;;;;7.90;2.60;;;;;;;18.75;19.54;99136.97;4994353;28;20152;-72
2022/05/02 12:17:12;;;;;;;10.90;2.95;;;;;;;18.65;19.21;99132.69;4988923;28;20046;-72
2022/05/02 12:19:40;;;;;;;10.32;2.90;;;;;;;18.26;19.59;99133.81;5003381;28;20058;-72
2022/05/02 12:22:13;;;;;;;8.98;2.50;;;;;;;18.32;19.47;99137.16;4991394;28;20086;-72
2022/05/02 12:24:43;;;;;;;8.75;3.63;;;;;;;18.40;19.95;99130.72;4975103;28;20046;-70
2022/05/02 12:27:12;;;;;;;9.48;2.85;;;;;;;18.74;19.37;99130.63;4967805;28;20038;-73
2022/05/02 12:29:42;;;;;;;7.05;2.63;;;;;;;18.81;19.20;99125.31;5007586;28;20049;-75
2022/05/02 12:32:10;;;;;;;7.85;2.50;;;;;;;18.68;19.20;99134.75;5000092;28;20100;-74
2022/05/02 12:34:39;;;;;;;11.15;2.90;;;;;;;18.59;19.49;99134.88;4988659;28;20541;-72